sensor_id;sensor_type;location;lat;lon;timestamp;temperature;humidity
7163;DHT22;3623;47.098;15.446;2023-05-07T00:01:43;13.70;99.90
7163;DHT22;3623;47.098;15.446;2023-05-07T00:04:10;13.70;99.90
7163;DHT22;3623;47.098;15.446;2023-05-07T00:06:39;13.70;99.90
7163;DHT22;3623;47.098;15.446;2023-05-07T00:09:06;13.70;99.90
7163;DHT22;3623;47.098;15.446;2023-05-07T00:11:34;13.80;99.90
7163;DHT22;3623;47.098;15.446;2023-05-07T00:14:01;13.80;99.90
7163;DHT22;3623;47.098;15.446;2023-05-07T00:16:28;13.80;99.90
7163;DHT22;3623;47.098;15.446;2023-05-07T00:18:55;13.80;99.90
7163;DHT22;3623;47.098;15.446;2023-05-07T00:21:22;13.80;99.90
7163;DHT22;3623;47.098;15.446;2023-05-07T00:23:53;13.70;99.90
7163;DHT22;3623;47.098;15.446;2023-05-07T00:26:20;13.60;99.90
7163;DHT22;3623;47.098;15.446;2023-05-07T00:28:47;13.50;99.90
7163;DHT22;3623;47.098;15.446;2023-05-07T00:31:14;13.50;99.90
7163;DHT22;3623;47.098;15.446;2023-05-07T00:33:42;13.50;99.90
7163;DHT22;3623;47.098;15.446;2023-05-07T00:36:09;13.40;99.90
7163;DHT22;3623;47.098;15.446;2023-05-07T00:38:36;13.30;99.90
7163;DHT22;3623;47.098;15.446;2023-05-07T00:41:04;13.30;99.90
7163;DHT22;3623;47.098;15.446;2023-05-07T00:43:32;13.30;99.90
7163;DHT22;3623;47.098;15.446;2023-05-07T00:45:59;13.30;99.90
7163;DHT22;3623;47.098;15.446;2023-05-07T00:48:26;13.40;99.90
7163;DHT22;3623;47.098;15.446;2023-05-07T00:50:54;13.30;99.90
7163;DHT22;3623;47.098;15.446;2023-05-07T00:53:21;13.30;99.90
7163;DHT22;3623;47.098;15.446;2023-05-07T00:55:48;13.30;99.90
7163;DHT22;3623;47.098;15.446;2023-05-07T00:58:17;13.20;99.90
7163;DHT22;3623;47.098;15.446;2023-05-07T01:00:44;13.20;99.90
7163;DHT22;3623;47.098;15.446;2023-05-07T01:03:11;13.20;99.90
7163;DHT22;3623;47.098;15.446;2023-05-07T01:05:38;13.10;99.90
7163;DHT22;3623;47.098;15.446;2023-05-07T01:08:06;13.10;99.90
7163;DHT22;3623;47.098;15.446;2023-05-07T01:10:33;13.10;99.90
7163;DHT22;3623;47.098;15.446;2023-05-07T01:13:01;13.10;99.90
7163;DHT22;3623;47.098;15.446;2023-05-07T01:15:29;13.10;99.90
7163;DHT22;3623;47.098;15.446;2023-05-07T01:17:57;13.00;99.90
7163;DHT22;3623;47.098;15.446;2023-05-07T01:20:24;13.00;99.90
7163;DHT22;3623;47.098;15.446;2023-05-07T01:22:53;13.00;99.90
7163;DHT22;3623;47.098;15.446;2023-05-07T01:25:21;13.00;99.90
7163;DHT22;3623;47.098;15.446;2023-05-07T01:27:49;12.90;99.90
7163;DHT22;3623;47.098;15.446;2023-05-07T01:30:16;12.80;99.90
7163;DHT22;3623;47.098;15.446;2023-05-07T01:32:49;12.70;99.90
7163;DHT22;3623;47.098;15.446;2023-05-07T01:35:19;12.80;99.90
7163;DHT22;3623;47.098;15.446;2023-05-07T01:37:48;12.70;99.90
7163;DHT22;3623;47.098;15.446;2023-05-07T01:40:17;12.70;99.90
7163;DHT22;3623;47.098;15.446;2023-05-07T01:42:45;12.60;99.90
7163;DHT22;3623;47.098;15.446;2023-05-07T01:45:14;12.50;99.90
7163;DHT22;3623;47.098;15.446;2023-05-07T01:47:41;12.50;99.90
7163;DHT22;3623;47.098;15.446;2023-05-07T01:50:09;12.50;99.90
7163;DHT22;3623;47.098;15.446;2023-05-07T01:52:37;12.40;99.90
7163;DHT22;3623;47.098;15.446;2023-05-07T01:55:06;12.40;99.90
7163;DHT22;3623;47.098;15.446;2023-05-07T01:57:34;12.40;99.90
7163;DHT22;3623;47.098;15.446;2023-05-07T02:00:02;12.40;99.90
7163;DHT22;3623;47.098;15.446;2023-05-07T02:02:32;12.20;99.90
7163;DHT22;3623;47.098;15.446;2023-05-07T02:04:59;12.40;99.90
7163;DHT22;3623;47.098;15.446;2023-05-07T02:07:26;12.20;99.90
7163;DHT22;3623;47.098;15.446;2023-05-07T02:09:53;12.20;99.90
7163;DHT22;3623;47.098;15.446;2023-05-07T02:12:21;12.20;99.90
7163;DHT22;3623;47.098;15.446;2023-05-07T02:14:50;12.20;99.90
7163;DHT22;3623;47.098;15.446;2023-05-07T02:17:17;12.10;99.90
7163;DHT22;3623;47.098;15.446;2023-05-07T02:19:44;12.10;99.90
7163;DHT22;3623;47.098;15.446;2023-05-07T02:22:11;12.00;99.90
7163;DHT22;3623;47.098;15.446;2023-05-07T02:24:38;12.00;99.90
7163;DHT22;3623;47.098;15.446;2023-05-07T02:27:05;12.00;99.90
7163;DHT22;3623;47.098;15.446;2023-05-07T02:29:32;11.90;99.90
7163;DHT22;3623;47.098;15.446;2023-05-07T02:32:01;11.90;99.90
7163;DHT22;3623;47.098;15.446;2023-05-07T02:34:28;11.90;99.90
7163;DHT22;3623;47.098;15.446;2023-05-07T02:36:55;11.80;99.90
7163;DHT22;3623;47.098;15.446;2023-05-07T02:39:22;11.80;99.90
7163;DHT22;3623;47.098;15.446;2023-05-07T02:41:49;11.70;99.90
7163;DHT22;3623;47.098;15.446;2023-05-07T02:44:16;11.80;99.90
7163;DHT22;3623;47.098;15.446;2023-05-07T02:46:43;11.70;99.90
7163;DHT22;3623;47.098;15.446;2023-05-07T02:49:12;11.70;99.90
7163;DHT22;3623;47.098;15.446;2023-05-07T02:51:39;11.60;99.90
7163;DHT22;3623;47.098;15.446;2023-05-07T02:54:06;11.60;99.90
7163;DHT22;3623;47.098;15.446;2023-05-07T02:56:33;11.50;99.90
7163;DHT22;3623;47.098;15.446;2023-05-07T02:59:00;11.50;99.90
7163;DHT22;3623;47.098;15.446;2023-05-07T03:01:27;11.50;99.90
7163;DHT22;3623;47.098;15.446;2023-05-07T03:03:54;11.50;99.90
7163;DHT22;3623;47.098;15.446;2023-05-07T03:06:23;11.40;99.90
7163;DHT22;3623;47.098;15.446;2023-05-07T03:08:50;11.40;99.90
7163;DHT22;3623;47.098;15.446;2023-05-07T03:11:17;11.30;99.90
7163;DHT22;3623;47.098;15.446;2023-05-07T03:13:44;11.30;99.90
7163;DHT22;3623;47.098;15.446;2023-05-07T03:16:11;11.30;99.90
7163;DHT22;3623;47.098;15.446;2023-05-07T03:18:38;11.30;99.90
7163;DHT22;3623;47.098;15.446;2023-05-07T03:21:05;11.40;99.90
7163;DHT22;3623;47.098;15.446;2023-05-07T03:23:34;11.30;99.90
7163;DHT22;3623;47.098;15.446;2023-05-07T03:26:01;11.30;99.90
7163;DHT22;3623;47.098;15.446;2023-05-07T03:28:28;11.30;99.90
7163;DHT22;3623;47.098;15.446;2023-05-07T03:30:55;11.20;99.90
7163;DHT22;3623;47.098;15.446;2023-05-07T03:33:23;11.20;99.90
7163;DHT22;3623;47.098;15.446;2023-05-07T03:35:50;11.10;99.90
7163;DHT22;3623;47.098;15.446;2023-05-07T03:38:17;11.20;99.90
7163;DHT22;3623;47.098;15.446;2023-05-07T03:40:45;11.20;99.90
7163;DHT22;3623;47.098;15.446;2023-05-07T03:43:12;11.20;99.90
7163;DHT22;3623;47.098;15.446;2023-05-07T03:45:39;11.20;99.90
7163;DHT22;3623;47.098;15.446;2023-05-07T03:48:06;11.20;99.90
7163;DHT22;3623;47.098;15.446;2023-05-07T03:50:34;11.20;99.90
7163;DHT22;3623;47.098;15.446;2023-05-07T03:53:01;11.10;99.90
7163;DHT22;3623;47.098;15.446;2023-05-07T03:55:28;11.20;99.90
7163;DHT22;3623;47.098;15.446;2023-05-07T03:57:57;11.20;99.90
7163;DHT22;3623;47.098;15.446;2023-05-07T04:00:24;11.20;99.90
7163;DHT22;3623;47.098;15.446;2023-05-07T04:02:51;11.50;99.90
7163;DHT22;3623;47.098;15.446;2023-05-07T04:05:18;11.30;99.90
7163;DHT22;3623;47.098;15.446;2023-05-07T04:07:45;11.20;99.90
7163;DHT22;3623;47.098;15.446;2023-05-07T04:10:12;11.30;99.90
7163;DHT22;3623;47.098;15.446;2023-05-07T04:12:39;11.30;99.90
7163;DHT22;3623;47.098;15.446;2023-05-07T04:15:09;11.30;99.90
7163;DHT22;3623;47.098;15.446;2023-05-07T04:17:36;11.40;99.90
7163;DHT22;3623;47.098;15.446;2023-05-07T04:20:04;11.40;99.90
7163;DHT22;3623;47.098;15.446;2023-05-07T04:22:32;11.50;99.90
7163;DHT22;3623;47.098;15.446;2023-05-07T04:25:00;11.50;99.90
7163;DHT22;3623;47.098;15.446;2023-05-07T04:27:28;11.90;99.90
7163;DHT22;3623;47.098;15.446;2023-05-07T04:29:55;11.60;99.90
7163;DHT22;3623;47.098;15.446;2023-05-07T04:32:23;11.60;99.90
7163;DHT22;3623;47.098;15.446;2023-05-07T04:34:51;11.60;99.90
7163;DHT22;3623;47.098;15.446;2023-05-07T04:37:18;11.70;99.90
7163;DHT22;3623;47.098;15.446;2023-05-07T04:39:45;11.70;99.90
7163;DHT22;3623;47.098;15.446;2023-05-07T04:42:14;11.60;99.90
7163;DHT22;3623;47.098;15.446;2023-05-07T04:44:41;11.70;99.90
7163;DHT22;3623;47.098;15.446;2023-05-07T04:47:08;11.60;99.90
7163;DHT22;3623;47.098;15.446;2023-05-07T04:49:37;11.60;99.90
7163;DHT22;3623;47.098;15.446;2023-05-07T04:52:04;11.80;99.90
7163;DHT22;3623;47.098;15.446;2023-05-07T04:54:31;11.70;99.90
7163;DHT22;3623;47.098;15.446;2023-05-07T04:56:59;11.80;99.90
7163;DHT22;3623;47.098;15.446;2023-05-07T04:59:26;11.80;99.90
7163;DHT22;3623;47.098;15.446;2023-05-07T05:01:53;11.90;99.90
7163;DHT22;3623;47.098;15.446;2023-05-07T05:04:20;12.30;99.90
7163;DHT22;3623;47.098;15.446;2023-05-07T05:06:48;11.90;99.90
7163;DHT22;3623;47.098;15.446;2023-05-07T05:09:15;11.90;99.90
7163;DHT22;3623;47.098;15.446;2023-05-07T05:11:42;12.10;99.90
7163;DHT22;3623;47.098;15.446;2023-05-07T05:14:09;12.30;99.90
7163;DHT22;3623;47.098;15.446;2023-05-07T05:16:36;12.30;99.90
7163;DHT22;3623;47.098;15.446;2023-05-07T05:19:04;12.40;99.90
7163;DHT22;3623;47.098;15.446;2023-05-07T05:21:31;12.50;99.90
7163;DHT22;3623;47.098;15.446;2023-05-07T05:23:59;12.60;99.90
7163;DHT22;3623;47.098;15.446;2023-05-07T05:26:26;12.50;99.90
7163;DHT22;3623;47.098;15.446;2023-05-07T05:28:53;12.70;99.90
7163;DHT22;3623;47.098;15.446;2023-05-07T05:31:20;12.70;99.90
7163;DHT22;3623;47.098;15.446;2023-05-07T05:33:48;13.10;99.90
7163;DHT22;3623;47.098;15.446;2023-05-07T05:36:15;12.80;99.90
7163;DHT22;3623;47.098;15.446;2023-05-07T05:38:42;12.90;99.90
7163;DHT22;3623;47.098;15.446;2023-05-07T05:41:11;13.00;99.90
7163;DHT22;3623;47.098;15.446;2023-05-07T05:43:38;13.00;99.90
7163;DHT22;3623;47.098;15.446;2023-05-07T05:46:05;13.00;99.90
7163;DHT22;3623;47.098;15.446;2023-05-07T05:48:34;13.10;99.90
7163;DHT22;3623;47.098;15.446;2023-05-07T05:51:01;13.20;99.90
7163;DHT22;3623;47.098;15.446;2023-05-07T05:53:28;13.30;99.90
7163;DHT22;3623;47.098;15.446;2023-05-07T05:55:55;13.30;99.90
7163;DHT22;3623;47.098;15.446;2023-05-07T05:58:23;13.40;99.90
7163;DHT22;3623;47.098;15.446;2023-05-07T06:00:51;13.40;99.90
7163;DHT22;3623;47.098;15.446;2023-05-07T06:03:19;13.60;99.90
7163;DHT22;3623;47.098;15.446;2023-05-07T06:05:46;13.60;99.90
7163;DHT22;3623;47.098;15.446;2023-05-07T06:08:13;13.50;99.90
7163;DHT22;3623;47.098;15.446;2023-05-07T06:10:40;13.60;99.90
7163;DHT22;3623;47.098;15.446;2023-05-07T06:13:09;13.70;99.90
7163;DHT22;3623;47.098;15.446;2023-05-07T06:15:37;13.70;99.90
7163;DHT22;3623;47.098;15.446;2023-05-07T06:18:04;13.80;99.90
7163;DHT22;3623;47.098;15.446;2023-05-07T06:20:31;14.00;99.90
7163;DHT22;3623;47.098;15.446;2023-05-07T06:22:58;13.80;99.90
7163;DHT22;3623;47.098;15.446;2023-05-07T06:25:26;13.80;99.90
7163;DHT22;3623;47.098;15.446;2023-05-07T06:27:53;13.80;99.90
7163;DHT22;3623;47.098;15.446;2023-05-07T06:30:20;13.90;99.90
7163;DHT22;3623;47.098;15.446;2023-05-07T06:32:48;14.00;99.90
7163;DHT22;3623;47.098;15.446;2023-05-07T06:35:15;14.00;99.90
7163;DHT22;3623;47.098;15.446;2023-05-07T06:37:42;14.20;99.90
7163;DHT22;3623;47.098;15.446;2023-05-07T06:40:10;14.30;99.90
7163;DHT22;3623;47.098;15.446;2023-05-07T06:42:37;14.30;99.90
7163;DHT22;3623;47.098;15.446;2023-05-07T06:45:05;14.40;99.90
7163;DHT22;3623;47.098;15.446;2023-05-07T06:47:33;14.70;99.90
7163;DHT22;3623;47.098;15.446;2023-05-07T06:50:01;14.80;99.90
7163;DHT22;3623;47.098;15.446;2023-05-07T06:52:28;14.90;99.90
7163;DHT22;3623;47.098;15.446;2023-05-07T06:54:55;15.00;99.90
7163;DHT22;3623;47.098;15.446;2023-05-07T06:57:23;15.20;99.90
7163;DHT22;3623;47.098;15.446;2023-05-07T06:59:50;15.30;99.90
7163;DHT22;3623;47.098;15.446;2023-05-07T07:02:17;15.60;99.90
7163;DHT22;3623;47.098;15.446;2023-05-07T07:04:44;16.20;99.90
7163;DHT22;3623;47.098;15.446;2023-05-07T07:07:13;17.10;99.90
7163;DHT22;3623;47.098;15.446;2023-05-07T07:09:40;17.60;99.90
7163;DHT22;3623;47.098;15.446;2023-05-07T07:12:07;18.20;99.90
7163;DHT22;3623;47.098;15.446;2023-05-07T07:14:34;18.50;99.90
7163;DHT22;3623;47.098;15.446;2023-05-07T07:17:01;18.50;99.90
7163;DHT22;3623;47.098;15.446;2023-05-07T07:19:28;18.00;99.90
7163;DHT22;3623;47.098;15.446;2023-05-07T07:21:55;17.90;99.90
7163;DHT22;3623;47.098;15.446;2023-05-07T07:24:24;18.70;99.90
7163;DHT22;3623;47.098;15.446;2023-05-07T07:26:51;19.20;99.90
7163;DHT22;3623;47.098;15.446;2023-05-07T07:29:18;19.50;99.90
7163;DHT22;3623;47.098;15.446;2023-05-07T07:31:45;19.30;99.90
7163;DHT22;3623;47.098;15.446;2023-05-07T07:34:12;19.20;99.90
7163;DHT22;3623;47.098;15.446;2023-05-07T07:36:39;18.90;99.90
7163;DHT22;3623;47.098;15.446;2023-05-07T07:39:06;18.70;99.90
7163;DHT22;3623;47.098;15.446;2023-05-07T07:41:35;18.70;99.90
7163;DHT22;3623;47.098;15.446;2023-05-07T07:44:03;18.50;99.90
7163;DHT22;3623;47.098;15.446;2023-05-07T07:46:33;18.00;99.90
7163;DHT22;3623;47.098;15.446;2023-05-07T07:49:00;17.90;99.90
7163;DHT22;3623;47.098;15.446;2023-05-07T07:51:27;17.80;99.90
7163;DHT22;3623;47.098;15.446;2023-05-07T07:53:54;17.80;99.90
7163;DHT22;3623;47.098;15.446;2023-05-07T07:56:23;17.80;99.90
7163;DHT22;3623;47.098;15.446;2023-05-07T07:58:52;17.90;99.90
7163;DHT22;3623;47.098;15.446;2023-05-07T08:01:19;17.80;99.90
7163;DHT22;3623;47.098;15.446;2023-05-07T08:03:46;17.60;99.90
7163;DHT22;3623;47.098;15.446;2023-05-07T08:06:13;17.60;99.90
7163;DHT22;3623;47.098;15.446;2023-05-07T08:08:40;17.60;99.90
7163;DHT22;3623;47.098;15.446;2023-05-07T08:11:07;17.60;99.90
7163;DHT22;3623;47.098;15.446;2023-05-07T08:13:34;17.60;99.90
7163;DHT22;3623;47.098;15.446;2023-05-07T08:16:03;17.70;99.90
7163;DHT22;3623;47.098;15.446;2023-05-07T08:18:31;17.80;99.90
7163;DHT22;3623;47.098;15.446;2023-05-07T08:20:58;17.70;99.90
7163;DHT22;3623;47.098;15.446;2023-05-07T08:23:25;17.80;99.90
7163;DHT22;3623;47.098;15.446;2023-05-07T08:25:52;17.80;99.90
7163;DHT22;3623;47.098;15.446;2023-05-07T08:28:19;17.90;99.90
7163;DHT22;3623;47.098;15.446;2023-05-07T08:30:47;17.90;99.90
7163;DHT22;3623;47.098;15.446;2023-05-07T08:33:15;17.90;99.90
7163;DHT22;3623;47.098;15.446;2023-05-07T08:35:42;18.00;99.90
7163;DHT22;3623;47.098;15.446;2023-05-07T08:38:10;17.90;99.90
7163;DHT22;3623;47.098;15.446;2023-05-07T08:40:38;18.00;99.90
7163;DHT22;3623;47.098;15.446;2023-05-07T08:43:08;18.00;99.90
7163;DHT22;3623;47.098;15.446;2023-05-07T08:45:35;18.00;99.90
7163;DHT22;3623;47.098;15.446;2023-05-07T08:48:09;17.90;99.90
7163;DHT22;3623;47.098;15.446;2023-05-07T08:50:38;18.00;99.90
7163;DHT22;3623;47.098;15.446;2023-05-07T08:53:05;18.00;99.90
7163;DHT22;3623;47.098;15.446;2023-05-07T08:55:32;18.20;99.90
7163;DHT22;3623;47.098;15.446;2023-05-07T08:58:00;18.10;99.90
7163;DHT22;3623;47.098;15.446;2023-05-07T09:00:27;18.30;99.90
7163;DHT22;3623;47.098;15.446;2023-05-07T09:02:54;18.50;99.90
7163;DHT22;3623;47.098;15.446;2023-05-07T09:05:21;18.70;99.90
7163;DHT22;3623;47.098;15.446;2023-05-07T09:07:49;18.90;99.90
7163;DHT22;3623;47.098;15.446;2023-05-07T09:10:16;18.90;99.90
7163;DHT22;3623;47.098;15.446;2023-05-07T09:12:43;19.00;99.90
7163;DHT22;3623;47.098;15.446;2023-05-07T09:15:13;19.00;99.90
7163;DHT22;3623;47.098;15.446;2023-05-07T09:17:40;19.10;99.90
7163;DHT22;3623;47.098;15.446;2023-05-07T09:20:08;19.10;99.90
7163;DHT22;3623;47.098;15.446;2023-05-07T09:22:36;19.30;99.90
7163;DHT22;3623;47.098;15.446;2023-05-07T09:25:06;19.50;99.90
7163;DHT22;3623;47.098;15.446;2023-05-07T09:27:33;19.80;99.90
7163;DHT22;3623;47.098;15.446;2023-05-07T09:30:03;20.00;99.90
7163;DHT22;3623;47.098;15.446;2023-05-07T09:32:35;20.20;99.90
7163;DHT22;3623;47.098;15.446;2023-05-07T09:35:04;20.10;99.90
7163;DHT22;3623;47.098;15.446;2023-05-07T09:37:31;20.00;99.90
7163;DHT22;3623;47.098;15.446;2023-05-07T09:39:58;20.30;99.90
7163;DHT22;3623;47.098;15.446;2023-05-07T09:42:27;20.10;99.90
7163;DHT22;3623;47.098;15.446;2023-05-07T09:44:55;19.90;99.90
7163;DHT22;3623;47.098;15.446;2023-05-07T09:47:24;19.90;99.90
7163;DHT22;3623;47.098;15.446;2023-05-07T09:49:56;20.00;99.90
7163;DHT22;3623;47.098;15.446;2023-05-07T09:52:23;20.20;99.90
7163;DHT22;3623;47.098;15.446;2023-05-07T09:54:55;20.50;99.90
7163;DHT22;3623;47.098;15.446;2023-05-07T09:57:27;20.60;99.90
7163;DHT22;3623;47.098;15.446;2023-05-07T09:59:56;20.50;99.90
7163;DHT22;3623;47.098;15.446;2023-05-07T10:02:23;20.60;99.90
7163;DHT22;3623;47.098;15.446;2023-05-07T10:04:52;20.80;99.90
7163;DHT22;3623;47.098;15.446;2023-05-07T10:07:21;20.90;99.90
7163;DHT22;3623;47.098;15.446;2023-05-07T10:09:50;21.10;99.90
7163;DHT22;3623;47.098;15.446;2023-05-07T10:12:17;21.20;99.90
7163;DHT22;3623;47.098;15.446;2023-05-07T10:14:47;21.50;99.90
7163;DHT22;3623;47.098;15.446;2023-05-07T10:17:16;21.70;99.90
7163;DHT22;3623;47.098;15.446;2023-05-07T10:19:44;22.30;99.90
7163;DHT22;3623;47.098;15.446;2023-05-07T10:22:14;22.30;99.90
7163;DHT22;3623;47.098;15.446;2023-05-07T10:24:44;22.40;99.90
7163;DHT22;3623;47.098;15.446;2023-05-07T10:27:12;22.30;99.90
7163;DHT22;3623;47.098;15.446;2023-05-07T10:29:53;23.40;99.90
7163;DHT22;3623;47.098;15.446;2023-05-07T10:32:37;24.60;99.90
7163;DHT22;3623;47.098;15.446;2023-05-07T10:35:09;25.00;99.90
7163;DHT22;3623;47.098;15.446;2023-05-07T10:37:37;25.30;99.90
7163;DHT22;3623;47.098;15.446;2023-05-07T10:40:05;25.60;99.90
7163;DHT22;3623;47.098;15.446;2023-05-07T10:42:33;26.50;99.90
7163;DHT22;3623;47.098;15.446;2023-05-07T10:45:13;26.30;99.90
7163;DHT22;3623;47.098;15.446;2023-05-07T10:48:09;25.20;99.90
7163;DHT22;3623;47.098;15.446;2023-05-07T10:50:37;25.00;99.90
7163;DHT22;3623;47.098;15.446;2023-05-07T10:53:25;25.40;99.90
7163;DHT22;3623;47.098;15.446;2023-05-07T10:59:35;24.70;99.90
7163;DHT22;3623;47.098;15.446;2023-05-07T11:02:09;25.10;99.90
7163;DHT22;3623;47.098;15.446;2023-05-07T11:04:39;24.70;99.90
7163;DHT22;3623;47.098;15.446;2023-05-07T11:07:26;23.80;99.90
7163;DHT22;3623;47.098;15.446;2023-05-07T11:09:58;22.90;99.90
7163;DHT22;3623;47.098;15.446;2023-05-07T11:12:49;22.50;99.90
7163;DHT22;3623;47.098;15.446;2023-05-07T11:15:35;22.10;99.90
7163;DHT22;3623;47.098;15.446;2023-05-07T11:18:03;22.70;99.90
7163;DHT22;3623;47.098;15.446;2023-05-07T11:20:51;24.30;99.90
7163;DHT22;3623;47.098;15.446;2023-05-07T11:23:56;25.10;99.90
7163;DHT22;3623;47.098;15.446;2023-05-07T11:26:30;24.80;99.90
7163;DHT22;3623;47.098;15.446;2023-05-07T11:28:58;24.20;99.90
7163;DHT22;3623;47.098;15.446;2023-05-07T11:31:27;23.50;99.90
7163;DHT22;3623;47.098;15.446;2023-05-07T11:33:57;23.20;99.90
7163;DHT22;3623;47.098;15.446;2023-05-07T11:36:24;23.10;99.90
7163;DHT22;3623;47.098;15.446;2023-05-07T11:38:52;24.20;99.90
7163;DHT22;3623;47.098;15.446;2023-05-07T11:41:19;25.80;99.90
7163;DHT22;3623;47.098;15.446;2023-05-07T11:43:55;26.00;99.90
7163;DHT22;3623;47.098;15.446;2023-05-07T11:46:22;25.60;99.90
7163;DHT22;3623;47.098;15.446;2023-05-07T11:48:49;24.80;99.90
7163;DHT22;3623;47.098;15.446;2023-05-07T11:51:22;24.40;99.90
7163;DHT22;3623;47.098;15.446;2023-05-07T11:53:52;24.00;99.90
7163;DHT22;3623;47.098;15.446;2023-05-07T11:56:19;24.60;99.90
7163;DHT22;3623;47.098;15.446;2023-05-07T11:58:47;25.20;99.90
7163;DHT22;3623;47.098;15.446;2023-05-07T12:01:15;25.20;99.90
7163;DHT22;3623;47.098;15.446;2023-05-07T12:03:45;25.20;99.90
7163;DHT22;3623;47.098;15.446;2023-05-07T12:06:14;26.40;99.90
7163;DHT22;3623;47.098;15.446;2023-05-07T12:08:44;27.60;99.90
7163;DHT22;3623;47.098;15.446;2023-05-07T12:11:14;27.90;99.90
7163;DHT22;3623;47.098;15.446;2023-05-07T12:13:43;27.00;99.90
7163;DHT22;3623;47.098;15.446;2023-05-07T12:16:11;27.30;99.90
7163;DHT22;3623;47.098;15.446;2023-05-07T12:18:38;27.60;99.90
7163;DHT22;3623;47.098;15.446;2023-05-07T12:21:06;27.40;99.90
7163;DHT22;3623;47.098;15.446;2023-05-07T12:23:35;25.70;99.90
7163;DHT22;3623;47.098;15.446;2023-05-07T12:26:04;24.60;99.90
7163;DHT22;3623;47.098;15.446;2023-05-07T12:28:36;24.00;99.90
7163;DHT22;3623;47.098;15.446;2023-05-07T12:31:05;23.70;99.90
7163;DHT22;3623;47.098;15.446;2023-05-07T12:33:32;23.90;99.90
7163;DHT22;3623;47.098;15.446;2023-05-07T12:36:03;23.80;99.90
7163;DHT22;3623;47.098;15.446;2023-05-07T12:38:34;23.50;99.90
7163;DHT22;3623;47.098;15.446;2023-05-07T12:41:04;23.00;99.90
7163;DHT22;3623;47.098;15.446;2023-05-07T12:43:32;22.80;99.90
7163;DHT22;3623;47.098;15.446;2023-05-07T12:46:01;22.50;99.90
7163;DHT22;3623;47.098;15.446;2023-05-07T12:48:29;22.30;99.90
7163;DHT22;3623;47.098;15.446;2023-05-07T12:50:58;22.00;99.90
7163;DHT22;3623;47.098;15.446;2023-05-07T12:53:27;21.70;99.90
7163;DHT22;3623;47.098;15.446;2023-05-07T12:55:55;21.60;99.90
7163;DHT22;3623;47.098;15.446;2023-05-07T12:58:26;21.30;99.90
7163;DHT22;3623;47.098;15.446;2023-05-07T13:00:54;20.80;99.90
7163;DHT22;3623;47.098;15.446;2023-05-07T13:03:28;20.40;99.90
7163;DHT22;3623;47.098;15.446;2023-05-07T13:05:56;20.00;99.90
7163;DHT22;3623;47.098;15.446;2023-05-07T13:08:28;19.60;99.90
7163;DHT22;3623;47.098;15.446;2023-05-07T13:10:57;19.20;99.90
7163;DHT22;3623;47.098;15.446;2023-05-07T13:13:26;18.90;99.90
7163;DHT22;3623;47.098;15.446;2023-05-07T13:15:53;18.60;99.90
7163;DHT22;3623;47.098;15.446;2023-05-07T13:18:20;18.40;99.90
7163;DHT22;3623;47.098;15.446;2023-05-07T13:20:47;18.20;99.90
7163;DHT22;3623;47.098;15.446;2023-05-07T13:23:14;18.00;99.90
7163;DHT22;3623;47.098;15.446;2023-05-07T13:25:41;17.80;99.90
7163;DHT22;3623;47.098;15.446;2023-05-07T13:28:08;17.60;99.90
7163;DHT22;3623;47.098;15.446;2023-05-07T13:30:37;17.40;99.90
7163;DHT22;3623;47.098;15.446;2023-05-07T13:33:04;17.00;99.90
7163;DHT22;3623;47.098;15.446;2023-05-07T13:35:31;16.70;99.90
7163;DHT22;3623;47.098;15.446;2023-05-07T13:37:58;16.40;99.90
7163;DHT22;3623;47.098;15.446;2023-05-07T13:40:25;16.30;99.90
7163;DHT22;3623;47.098;15.446;2023-05-07T13:42:53;16.20;99.90
7163;DHT22;3623;47.098;15.446;2023-05-07T13:45:20;16.10;99.90
7163;DHT22;3623;47.098;15.446;2023-05-07T13:47:48;16.10;99.90
7163;DHT22;3623;47.098;15.446;2023-05-07T13:50:16;16.10;99.90
7163;DHT22;3623;47.098;15.446;2023-05-07T13:52:44;16.10;99.90
7163;DHT22;3623;47.098;15.446;2023-05-07T13:55:16;16.10;99.90
7163;DHT22;3623;47.098;15.446;2023-05-07T13:57:43;16.00;99.90
7163;DHT22;3623;47.098;15.446;2023-05-07T14:00:11;15.90;99.90
7163;DHT22;3623;47.098;15.446;2023-05-07T14:02:39;15.90;99.90
7163;DHT22;3623;47.098;15.446;2023-05-07T14:05:09;15.90;99.90
7163;DHT22;3623;47.098;15.446;2023-05-07T14:07:37;15.90;99.90
7163;DHT22;3623;47.098;15.446;2023-05-07T14:10:05;15.80;99.90
7163;DHT22;3623;47.098;15.446;2023-05-07T14:12:33;15.70;99.90
7163;DHT22;3623;47.098;15.446;2023-05-07T14:15:01;15.50;99.90
7163;DHT22;3623;47.098;15.446;2023-05-07T14:17:28;15.60;99.90
7163;DHT22;3623;47.098;15.446;2023-05-07T14:19:56;15.50;99.90
7163;DHT22;3623;47.098;15.446;2023-05-07T14:22:26;15.60;99.90
7163;DHT22;3623;47.098;15.446;2023-05-07T14:24:54;15.60;99.90
7163;DHT22;3623;47.098;15.446;2023-05-07T14:27:22;15.70;99.90
7163;DHT22;3623;47.098;15.446;2023-05-07T14:29:49;15.70;99.90
7163;DHT22;3623;47.098;15.446;2023-05-07T14:32:17;15.90;99.90
7163;DHT22;3623;47.098;15.446;2023-05-07T14:34:45;15.90;99.90
7163;DHT22;3623;47.098;15.446;2023-05-07T14:37:13;16.00;99.90
7163;DHT22;3623;47.098;15.446;2023-05-07T14:39:42;16.10;99.90
7163;DHT22;3623;47.098;15.446;2023-05-07T14:42:10;16.20;99.90
7163;DHT22;3623;47.098;15.446;2023-05-07T14:44:38;16.10;99.90
7163;DHT22;3623;47.098;15.446;2023-05-07T14:47:07;16.50;99.90
7163;DHT22;3623;47.098;15.446;2023-05-07T14:49:34;16.00;99.90
7163;DHT22;3623;47.098;15.446;2023-05-07T14:52:01;15.90;99.90
7163;DHT22;3623;47.098;15.446;2023-05-07T14:54:30;15.80;99.90
7163;DHT22;3623;47.098;15.446;2023-05-07T14:56:58;15.80;99.90
7163;DHT22;3623;47.098;15.446;2023-05-07T14:59:25;15.70;99.90
7163;DHT22;3623;47.098;15.446;2023-05-07T15:01:52;15.60;99.90
7163;DHT22;3623;47.098;15.446;2023-05-07T15:04:20;15.50;99.90
7163;DHT22;3623;47.098;15.446;2023-05-07T15:06:47;15.50;99.90
7163;DHT22;3623;47.098;15.446;2023-05-07T15:09:14;15.60;99.90
7163;DHT22;3623;47.098;15.446;2023-05-07T15:11:41;15.60;99.90
7163;DHT22;3623;47.098;15.446;2023-05-07T15:14:10;15.70;99.90
7163;DHT22;3623;47.098;15.446;2023-05-07T15:16:37;15.60;99.90
7163;DHT22;3623;47.098;15.446;2023-05-07T15:19:04;15.70;99.90
7163;DHT22;3623;47.098;15.446;2023-05-07T15:21:31;15.80;99.90
7163;DHT22;3623;47.098;15.446;2023-05-07T15:24:00;15.80;99.90
7163;DHT22;3623;47.098;15.446;2023-05-07T15:26:27;15.90;99.90
7163;DHT22;3623;47.098;15.446;2023-05-07T15:28:54;16.00;99.90
7163;DHT22;3623;47.098;15.446;2023-05-07T15:31:24;16.00;99.90
7163;DHT22;3623;47.098;15.446;2023-05-07T15:33:51;16.30;99.90
7163;DHT22;3623;47.098;15.446;2023-05-07T15:36:20;16.40;99.90
7163;DHT22;3623;47.098;15.446;2023-05-07T15:38:47;16.50;99.90
7163;DHT22;3623;47.098;15.446;2023-05-07T15:41:14;16.60;99.90
7163;DHT22;3623;47.098;15.446;2023-05-07T15:43:45;16.60;99.90
7163;DHT22;3623;47.098;15.446;2023-05-07T15:46:13;16.60;99.90
7163;DHT22;3623;47.098;15.446;2023-05-07T15:48:45;16.70;99.90
7163;DHT22;3623;47.098;15.446;2023-05-07T15:51:12;16.60;99.90
7163;DHT22;3623;47.098;15.446;2023-05-07T15:53:39;16.50;99.90
7163;DHT22;3623;47.098;15.446;2023-05-07T15:56:06;16.50;99.90